sensor_id;sensor_type;location;lat;lon;timestamp;temperature;humidity
56498;DHT22;51790;45.558;12.076;2023-03-01T00:05:35;3.30;68.70
56498;DHT22;51790;45.558;12.076;2023-03-01T00:11:37;3.30;68.90
56498;DHT22;51790;45.558;12.076;2023-03-01T00:17:38;3.30;68.60
56498;DHT22;51790;45.558;12.076;2023-03-01T00:23:39;3.40;68.50
56498;DHT22;51790;45.558;12.076;2023-03-01T00:29:41;3.40;68.40
56498;DHT22;51790;45.558;12.076;2023-03-01T00:35:43;3.50;68.50
56498;DHT22;51790;45.558;12.076;2023-03-01T00:41:45;3.40;68.30
56498;DHT22;51790;45.558;12.076;2023-03-01T00:47:46;3.40;68.70
56498;DHT22;51790;45.558;12.076;2023-03-01T00:53:50;3.30;68.90
56498;DHT22;51790;45.558;12.076;2023-03-01T00:59:51;3.40;68.90
56498;DHT22;51790;45.558;12.076;2023-03-01T01:05:55;3.30;69.40
56498;DHT22;51790;45.558;12.076;2023-03-01T01:11:57;3.30;69.20
56498;DHT22;51790;45.558;12.076;2023-03-01T01:17:58;3.30;68.90
56498;DHT22;51790;45.558;12.076;2023-03-01T01:23:59;3.20;69.70
56498;DHT22;51790;45.558;12.076;2023-03-01T01:30:01;3.30;69.40
56498;DHT22;51790;45.558;12.076;2023-03-01T01:36:03;3.30;69.80
56498;DHT22;51790;45.558;12.076;2023-03-01T01:42:04;3.40;69.10
56498;DHT22;51790;45.558;12.076;2023-03-01T01:48:12;3.60;68.90
56498;DHT22;51790;45.558;12.076;2023-03-01T01:54:16;3.70;68.90
56498;DHT22;51790;45.558;12.076;2023-03-01T02:00:22;3.80;68.40
56498;DHT22;51790;45.558;12.076;2023-03-01T02:06:31;3.90;68.30
56498;DHT22;51790;45.558;12.076;2023-03-01T02:12:33;3.90;67.80
56498;DHT22;51790;45.558;12.076;2023-03-01T02:18:36;4.00;67.50
56498;DHT22;51790;45.558;12.076;2023-03-01T02:30:47;4.10;67.20
56498;DHT22;51790;45.558;12.076;2023-03-01T02:37:09;4.10;67.40
56498;DHT22;51790;45.558;12.076;2023-03-01T02:43:13;4.20;67.70
56498;DHT22;51790;45.558;12.076;2023-03-01T02:49:20;4.30;67.80
56498;DHT22;51790;45.558;12.076;2023-03-01T02:55:22;4.30;67.70
56498;DHT22;51790;45.558;12.076;2023-03-01T03:01:23;4.30;67.10
56498;DHT22;51790;45.558;12.076;2023-03-01T03:07:39;4.20;67.50
56498;DHT22;51790;45.558;12.076;2023-03-01T03:13:43;4.30;67.00
56498;DHT22;51790;45.558;12.076;2023-03-01T03:19:49;4.30;67.10
56498;DHT22;51790;45.558;12.076;2023-03-01T03:25:51;4.10;67.80
56498;DHT22;51790;45.558;12.076;2023-03-01T03:31:52;3.80;68.50
56498;DHT22;51790;45.558;12.076;2023-03-01T03:37:53;3.80;68.80
56498;DHT22;51790;45.558;12.076;2023-03-01T03:44:04;3.80;68.90
56498;DHT22;51790;45.558;12.076;2023-03-01T03:50:05;3.80;68.50
56498;DHT22;51790;45.558;12.076;2023-03-01T03:56:07;3.70;69.00
56498;DHT22;51790;45.558;12.076;2023-03-01T04:02:08;3.80;68.80
56498;DHT22;51790;45.558;12.076;2023-03-01T04:08:10;3.90;68.20
56498;DHT22;51790;45.558;12.076;2023-03-01T04:14:11;4.00;67.90
56498;DHT22;51790;45.558;12.076;2023-03-01T04:20:16;4.10;67.80
56498;DHT22;51790;45.558;12.076;2023-03-01T04:26:18;4.30;67.50
56498;DHT22;51790;45.558;12.076;2023-03-01T04:32:21;4.30;66.90
56498;DHT22;51790;45.558;12.076;2023-03-01T04:38:22;4.40;66.90
56498;DHT22;51790;45.558;12.076;2023-03-01T04:44:23;4.40;67.00
56498;DHT22;51790;45.558;12.076;2023-03-01T04:50:25;4.40;67.10
56498;DHT22;51790;45.558;12.076;2023-03-01T04:56:26;4.30;67.10
56498;DHT22;51790;45.558;12.076;2023-03-01T05:02:28;4.40;67.00
56498;DHT22;51790;45.558;12.076;2023-03-01T05:08:30;4.40;67.00
56498;DHT22;51790;45.558;12.076;2023-03-01T05:14:35;4.50;66.80
56498;DHT22;51790;45.558;12.076;2023-03-01T05:20:36;4.60;66.60
56498;DHT22;51790;45.558;12.076;2023-03-01T05:26:38;4.70;66.90
56498;DHT22;51790;45.558;12.076;2023-03-01T05:32:45;4.70;67.20
56498;DHT22;51790;45.558;12.076;2023-03-01T05:38:47;4.80;67.30
56498;DHT22;51790;45.558;12.076;2023-03-01T05:44:48;4.80;66.90
56498;DHT22;51790;45.558;12.076;2023-03-01T05:50:50;4.80;67.30
56498;DHT22;51790;45.558;12.076;2023-03-01T05:56:51;4.90;66.80
56498;DHT22;51790;45.558;12.076;2023-03-01T06:02:56;4.90;66.50
56498;DHT22;51790;45.558;12.076;2023-03-01T06:08:57;5.00;66.10
56498;DHT22;51790;45.558;12.076;2023-03-01T06:15:00;5.10;66.40
56498;DHT22;51790;45.558;12.076;2023-03-01T06:21:01;5.10;66.10
56498;DHT22;51790;45.558;12.076;2023-03-01T06:27:03;5.10;66.10
56498;DHT22;51790;45.558;12.076;2023-03-01T06:33:04;5.20;65.80
56498;DHT22;51790;45.558;12.076;2023-03-01T06:39:06;5.40;65.70
56498;DHT22;51790;45.558;12.076;2023-03-01T06:45:07;5.50;65.00
56498;DHT22;51790;45.558;12.076;2023-03-01T06:51:09;5.50;64.90
56498;DHT22;51790;45.558;12.076;2023-03-01T06:57:10;5.60;64.40
56498;DHT22;51790;45.558;12.076;2023-03-01T07:03:12;5.70;64.80
56498;DHT22;51790;45.558;12.076;2023-03-01T07:09:13;5.80;64.90
56498;DHT22;51790;45.558;12.076;2023-03-01T07:15:14;6.00;64.00
56498;DHT22;51790;45.558;12.076;2023-03-01T07:21:16;6.20;63.30
56498;DHT22;51790;45.558;12.076;2023-03-01T07:27:17;6.30;63.20
56498;DHT22;51790;45.558;12.076;2023-03-01T07:33:18;6.60;63.20
56498;DHT22;51790;45.558;12.076;2023-03-01T07:39:20;6.80;62.30
56498;DHT22;51790;45.558;12.076;2023-03-01T07:45:21;7.20;60.80
56498;DHT22;51790;45.558;12.076;2023-03-01T07:51:23;7.30;60.90
56498;DHT22;51790;45.558;12.076;2023-03-01T07:57:24;7.50;60.00
56498;DHT22;51790;45.558;12.076;2023-03-01T08:03:26;7.80;60.00
56498;DHT22;51790;45.558;12.076;2023-03-01T08:09:27;8.10;59.10
56498;DHT22;51790;45.558;12.076;2023-03-01T08:15:28;8.20;59.00
56498;DHT22;51790;45.558;12.076;2023-03-01T08:21:30;8.30;58.80
56498;DHT22;51790;45.558;12.076;2023-03-01T08:27:31;8.60;58.60
56498;DHT22;51790;45.558;12.076;2023-03-01T08:33:32;8.70;57.80
56498;DHT22;51790;45.558;12.076;2023-03-01T08:39:34;9.10;57.40
56498;DHT22;51790;45.558;12.076;2023-03-01T08:45:35;9.20;57.20
56498;DHT22;51790;45.558;12.076;2023-03-01T08:51:36;9.30;58.10
56498;DHT22;51790;45.558;12.076;2023-03-01T08:57:38;9.20;58.00
56498;DHT22;51790;45.558;12.076;2023-03-01T09:03:39;9.50;56.80
56498;DHT22;51790;45.558;12.076;2023-03-01T09:09:40;10.30;54.60
56498;DHT22;51790;45.558;12.076;2023-03-01T09:15:42;11.10;52.70
56498;DHT22;51790;45.558;12.076;2023-03-01T09:21:43;11.50;51.20
56498;DHT22;51790;45.558;12.076;2023-03-01T09:27:53;11.30;52.20
56498;DHT22;51790;45.558;12.076;2023-03-01T09:33:55;10.90;53.10
56498;DHT22;51790;45.558;12.076;2023-03-01T09:39:56;11.10;52.90
56498;DHT22;51790;45.558;12.076;2023-03-01T09:46:03;11.50;52.20
56498;DHT22;51790;45.558;12.076;2023-03-01T10:04:43;12.50;49.80
56498;DHT22;51790;45.558;12.076;2023-03-01T10:10:47;12.40;48.20
56498;DHT22;51790;45.558;12.076;2023-03-01T10:16:51;13.00;47.80
56498;DHT22;51790;45.558;12.076;2023-03-01T10:22:55;12.90;47.20
56498;DHT22;51790;45.558;12.076;2023-03-01T10:29:07;12.50;48.20
56498;DHT22;51790;45.558;12.076;2023-03-01T10:35:17;12.50;49.00
56498;DHT22;51790;45.558;12.076;2023-03-01T10:41:20;12.20;49.10
56498;DHT22;51790;45.558;12.076;2023-03-01T10:47:24;12.30;48.70
56498;DHT22;51790;45.558;12.076;2023-03-01T10:53:36;11.70;49.10
56498;DHT22;51790;45.558;12.076;2023-03-01T10:59:38;11.60;49.80
56498;DHT22;51790;45.558;12.076;2023-03-01T11:05:53;11.40;50.00
56498;DHT22;51790;45.558;12.076;2023-03-01T11:11:55;11.40;50.30
56498;DHT22;51790;45.558;12.076;2023-03-01T11:17:57;11.30;50.80
56498;DHT22;51790;45.558;12.076;2023-03-01T11:23:59;10.90;54.30
56498;DHT22;51790;45.558;12.076;2023-03-01T11:30:13;10.80;53.30
56498;DHT22;51790;45.558;12.076;2023-03-01T11:42:20;11.20;51.30
56498;DHT22;51790;45.558;12.076;2023-03-01T11:48:44;11.30;50.40
56498;DHT22;51790;45.558;12.076;2023-03-01T12:31:32;10.70;52.70
56498;DHT22;51790;45.558;12.076;2023-03-01T12:44:10;10.90;52.20
56498;DHT22;51790;45.558;12.076;2023-03-01T12:50:17;10.70;53.10
56498;DHT22;51790;45.558;12.076;2023-03-01T12:56:21;10.30;54.20
56498;DHT22;51790;45.558;12.076;2023-03-01T13:02:24;10.30;55.00
56498;DHT22;51790;45.558;12.076;2023-03-01T13:08:36;10.40;55.00
56498;DHT22;51790;45.558;12.076;2023-03-01T13:14:43;10.60;55.10
56498;DHT22;51790;45.558;12.076;2023-03-01T13:20:46;10.70;55.00
56498;DHT22;51790;45.558;12.076;2023-03-01T13:27:09;10.50;54.70
56498;DHT22;51790;45.558;12.076;2023-03-01T13:33:33;10.50;55.40
56498;DHT22;51790;45.558;12.076;2023-03-01T13:39:40;10.40;55.30
56498;DHT22;51790;45.558;12.076;2023-03-01T13:45:42;10.40;54.60
56498;DHT22;51790;45.558;12.076;2023-03-01T13:51:46;10.30;55.10
56498;DHT22;51790;45.558;12.076;2023-03-01T13:57:48;10.40;55.50
56498;DHT22;51790;45.558;12.076;2023-03-01T14:03:54;10.30;55.80
56498;DHT22;51790;45.558;12.076;2023-03-01T14:09:58;10.30;56.00
56498;DHT22;51790;45.558;12.076;2023-03-01T14:16:04;10.30;55.40
56498;DHT22;51790;45.558;12.076;2023-03-01T14:34:23;10.30;55.20
56498;DHT22;51790;45.558;12.076;2023-03-01T14:46:28;10.30;56.00
56498;DHT22;51790;45.558;12.076;2023-03-01T14:52:34;10.40;55.70
56498;DHT22;51790;45.558;12.076;2023-03-01T14:58:36;10.30;55.50
56498;DHT22;51790;45.558;12.076;2023-03-01T15:04:38;10.30;55.30
56498;DHT22;51790;45.558;12.076;2023-03-01T15:10:40;10.40;55.30
56498;DHT22;51790;45.558;12.076;2023-03-01T15:16:44;10.30;55.60
56498;DHT22;51790;45.558;12.076;2023-03-01T15:22:45;10.30;55.50
56498;DHT22;51790;45.558;12.076;2023-03-01T15:28:50;10.30;55.90
56498;DHT22;51790;45.558;12.076;2023-03-01T15:34:52;10.30;57.40
56498;DHT22;51790;45.558;12.076;2023-03-01T15:40:54;10.20;59.10
56498;DHT22;51790;45.558;12.076;2023-03-01T15:46:56;9.90;60.90
56498;DHT22;51790;45.558;12.076;2023-03-01T15:52:57;9.80;61.30
56498;DHT22;51790;45.558;12.076;2023-03-01T15:59:00;9.70;62.10
56498;DHT22;51790;45.558;12.076;2023-03-01T16:05:01;9.50;64.30
56498;DHT22;51790;45.558;12.076;2023-03-01T16:11:04;9.20;67.50
56498;DHT22;51790;45.558;12.076;2023-03-01T16:17:06;9.00;71.10
56498;DHT22;51790;45.558;12.076;2023-03-01T16:23:11;8.70;73.90
56498;DHT22;51790;45.558;12.076;2023-03-01T16:29:12;8.40;75.50
56498;DHT22;51790;45.558;12.076;2023-03-01T16:35:15;8.30;77.50
56498;DHT22;51790;45.558;12.076;2023-03-01T16:41:17;8.10;77.90
56498;DHT22;51790;45.558;12.076;2023-03-01T16:47:18;8.10;78.40
56498;DHT22;51790;45.558;12.076;2023-03-01T16:53:20;8.00;78.90
56498;DHT22;51790;45.558;12.076;2023-03-01T16:59:21;7.90;78.30
56498;DHT22;51790;45.558;12.076;2023-03-01T17:05:22;7.90;78.50
56498;DHT22;51790;45.558;12.076;2023-03-01T17:11:25;7.80;78.90
56498;DHT22;51790;45.558;12.076;2023-03-01T17:17:26;7.80;78.80
56498;DHT22;51790;45.558;12.076;2023-03-01T17:23:28;7.80;77.10
56498;DHT22;51790;45.558;12.076;2023-03-01T17:29:29;7.80;77.40
56498;DHT22;51790;45.558;12.076;2023-03-01T17:35:31;7.70;77.50
56498;DHT22;51790;45.558;12.076;2023-03-01T17:41:38;7.60;78.40
56498;DHT22;51790;45.558;12.076;2023-03-01T17:47:39;7.60;79.10
56498;DHT22;51790;45.558;12.076;2023-03-01T17:53:40;7.50;79.80
56498;DHT22;51790;45.558;12.076;2023-03-01T17:59:42;7.40;81.30
56498;DHT22;51790;45.558;12.076;2023-03-01T18:05:43;7.40;81.40
56498;DHT22;51790;45.558;12.076;2023-03-01T18:11:44;7.40;81.80
56498;DHT22;51790;45.558;12.076;2023-03-01T18:17:45;7.40;82.10
56498;DHT22;51790;45.558;12.076;2023-03-01T18:23:47;7.30;82.00
56498;DHT22;51790;45.558;12.076;2023-03-01T18:29:48;7.30;82.60
56498;DHT22;51790;45.558;12.076;2023-03-01T18:35:50;7.40;82.40
56498;DHT22;51790;45.558;12.076;2023-03-01T18:41:51;7.40;81.60
56498;DHT22;51790;45.558;12.076;2023-03-01T18:47:52;7.30;81.70
56498;DHT22;51790;45.558;12.076;2023-03-01T18:53:54;7.30;83.00
56498;DHT22;51790;45.558;12.076;2023-03-01T18:59:55;7.30;83.70
56498;DHT22;51790;45.558;12.076;2023-03-01T19:05:57;7.40;83.90
56498;DHT22;51790;45.558;12.076;2023-03-01T19:18:49;7.40;83.50
56498;DHT22;51790;45.558;12.076;2023-03-01T19:24:51;7.50;82.90
56498;DHT22;51790;45.558;12.076;2023-03-01T19:30:56;7.50;82.50
56498;DHT22;51790;45.558;12.076;2023-03-01T19:36:58;7.50;82.40
56498;DHT22;51790;45.558;12.076;2023-03-01T19:42:59;7.60;82.30
56498;DHT22;51790;45.558;12.076;2023-03-01T19:49:01;7.70;81.70
56498;DHT22;51790;45.558;12.076;2023-03-01T19:55:03;7.70;81.10
56498;DHT22;51790;45.558;12.076;2023-03-01T20:01:12;7.60;80.70
56498;DHT22;51790;45.558;12.076;2023-03-01T20:07:14;7.60;80.10
56498;DHT22;51790;45.558;12.076;2023-03-01T20:13:16;7.70;79.50
56498;DHT22;51790;45.558;12.076;2023-03-01T20:19:21;7.60;80.10
56498;DHT22;51790;45.558;12.076;2023-03-01T20:25:22;7.60;80.00
56498;DHT22;51790;45.558;12.076;2023-03-01T20:31:24;7.60;81.40
56498;DHT22;51790;45.558;12.076;2023-03-01T20:37:29;7.60;81.60
56498;DHT22;51790;45.558;12.076;2023-03-01T20:43:31;7.60;81.40
56498;DHT22;51790;45.558;12.076;2023-03-01T20:49:33;7.60;81.60
56498;DHT22;51790;45.558;12.076;2023-03-01T20:55:37;7.60;81.80
56498;DHT22;51790;45.558;12.076;2023-03-01T21:01:38;7.60;81.40
56498;DHT22;51790;45.558;12.076;2023-03-01T21:07:41;7.70;81.30
56498;DHT22;51790;45.558;12.076;2023-03-01T21:13:46;7.80;81.40
56498;DHT22;51790;45.558;12.076;2023-03-01T21:19:47;7.70;81.10
56498;DHT22;51790;45.558;12.076;2023-03-01T21:32:04;7.90;80.40
56498;DHT22;51790;45.558;12.076;2023-03-01T21:38:06;7.80;80.60
56498;DHT22;51790;45.558;12.076;2023-03-01T21:44:07;7.90;80.30
56498;DHT22;51790;45.558;12.076;2023-03-01T21:50:09;7.90;80.20
56498;DHT22;51790;45.558;12.076;2023-03-01T21:56:14;7.90;80.20
56498;DHT22;51790;45.558;12.076;2023-03-01T22:02:16;8.00;79.90
56498;DHT22;51790;45.558;12.076;2023-03-01T22:08:18;7.90;79.90
56498;DHT22;51790;45.558;12.076;2023-03-01T22:14:23;7.80;80.90
56498;DHT22;51790;45.558;12.076;2023-03-01T22:20:24;7.80;80.60
56498;DHT22;51790;45.558;12.076;2023-03-01T22:32:27;7.70;81.70
56498;DHT22;51790;45.558;12.076;2023-03-01T22:38:28;7.60;81.70
56498;DHT22;51790;45.558;12.076;2023-03-01T22:44:29;7.60;82.00
56498;DHT22;51790;45.558;12.076;2023-03-01T22:50:31;7.70;82.00
56498;DHT22;51790;45.558;12.076;2023-03-01T22:56:33;7.70;81.80
56498;DHT22;51790;45.558;12.076;2023-03-01T23:02:34;7.80;81.20
56498;DHT22;51790;45.558;12.076;2023-03-01T23:08:36;7.80;80.60
56498;DHT22;51790;45.558;12.076;2023-03-01T23:14:37;7.80;80.10
56498;DHT22;51790;45.558;12.076;2023-03-01T23:20:40;7.90;79.20
56498;DHT22;51790;45.558;12.076;2023-03-01T23:26:41;8.00;78.60
56498;DHT22;51790;45.558;12.076;2023-03-01T23:32:45;7.90;78.70
56498;DHT22;51790;45.558;12.076;2023-03-01T23:38:47;7.90;78.90
56498;DHT22;51790;45.558;12.076;2023-03-01T23:44:48;7.90;78.80
56498;DHT22;51790;45.558;12.076;2023-03-01T23:50:50;7.90;78.50
56498;DHT22;51790;45.558;12.076;2023-03-01T23:56:52;7.90;78.80
